createdAt,value
2023-01-19T00:00:41.840Z,172.40
2023-01-19T00:03:15.908Z,170.97
2023-01-19T00:05:43.950Z,161.93
2023-01-19T00:08:17.650Z,145.47
2023-01-19T00:10:45.734Z,125.80
2023-01-19T00:13:12.930Z,133.60
2023-01-19T00:15:40.129Z,121.53
2023-01-19T00:18:09.051Z,125.50
2023-01-19T00:20:36.946Z,124.33
2023-01-19T00:23:04.792Z,126.17
2023-01-19T00:25:32.115Z,121.03
2023-01-19T00:28:01.522Z,122.90
2023-01-19T00:30:29.007Z,156.77
2023-01-19T00:32:56.315Z,175.47
2023-01-19T00:35:23.462Z,182.37
2023-01-19T00:37:50.648Z,189.27
2023-01-19T00:40:18.144Z,166.23
2023-01-19T00:42:45.402Z,177.87
2023-01-19T00:45:13.406Z,172.17
2023-01-19T00:47:40.681Z,176.73
2023-01-19T00:50:08.626Z,187.63
2023-01-19T00:52:35.803Z,185.90
2023-01-19T00:55:02.942Z,178.03
2023-01-19T00:57:30.115Z,172.70
2023-01-19T00:59:57.359Z,167.13
2023-01-19T01:02:24.711Z,164.27
2023-01-19T01:04:55.015Z,174.67
2023-01-19T01:07:22.626Z,158.30
2023-01-19T01:09:49.761Z,158.83
2023-01-19T01:12:16.901Z,167.40
2023-01-19T01:14:44.120Z,164.00
2023-01-19T01:17:11.698Z,179.83
2023-01-19T01:19:39.059Z,170.43
2023-01-19T01:22:06.242Z,182.10
2023-01-19T01:24:33.449Z,174.17
2023-01-19T01:27:00.629Z,170.03
2023-01-19T01:29:27.826Z,169.83
2023-01-19T01:31:55.047Z,180.30
2023-01-19T01:34:22.258Z,170.63
2023-01-19T01:36:49.454Z,188.70
2023-01-19T01:39:16.607Z,181.30
2023-01-19T01:41:43.750Z,174.20
2023-01-19T01:44:30.720Z,166.97
2023-01-19T01:46:57.905Z,173.17
2023-01-19T01:49:25.042Z,172.90
2023-01-19T01:51:52.699Z,170.73
2023-01-19T01:54:21.717Z,168.47
2023-01-19T01:56:49.512Z,161.87
2023-01-19T01:59:26.012Z,183.63
2023-01-19T02:02:19.691Z,172.07
2023-01-19T02:04:51.707Z,229.80
2023-01-19T02:07:39.844Z,200.13
2023-01-19T02:10:25.802Z,187.43
2023-01-19T02:13:11.673Z,187.77
2023-01-19T02:15:38.860Z,201.40
2023-01-19T02:18:06.021Z,205.80
2023-01-19T02:20:33.163Z,185.03
2023-01-19T02:23:01.746Z,168.63
2023-01-19T02:25:29.084Z,180.33
2023-01-19T02:27:56.335Z,172.00
2023-01-19T02:30:23.565Z,175.03
2023-01-19T02:32:50.703Z,175.77
2023-01-19T02:35:17.885Z,159.10
2023-01-19T02:37:45.062Z,150.37
2023-01-19T02:40:15.749Z,141.20
2023-01-19T02:42:43.836Z,140.70
2023-01-19T02:45:12.709Z,145.10
2023-01-19T02:47:40.346Z,132.73
2023-01-19T02:50:27.530Z,154.97
2023-01-19T02:52:55.485Z,138.80
2023-01-19T02:55:23.011Z,139.03
2023-01-19T02:58:10.815Z,140.13
2023-01-19T03:00:41.057Z,137.00
2023-01-19T03:03:23.594Z,141.80
2023-01-19T03:05:56.725Z,150.13
2023-01-19T03:08:23.875Z,132.33
2023-01-19T03:10:59.822Z,126.70
2023-01-19T03:13:30.082Z,132.37
2023-01-19T03:16:03.201Z,133.27
2023-01-19T03:18:30.447Z,136.60
2023-01-19T03:20:58.601Z,143.20
2023-01-19T03:23:26.830Z,160.07
2023-01-19T03:25:54.028Z,154.90
2023-01-19T03:28:21.350Z,158.90
2023-01-19T03:30:49.143Z,158.40
2023-01-19T03:33:22.222Z,157.10
2023-01-19T03:35:50.198Z,157.20
2023-01-19T03:38:17.687Z,165.77
2023-01-19T03:40:44.885Z,174.47
2023-01-19T03:43:12.047Z,158.37
2023-01-19T03:45:39.478Z,146.23
2023-01-19T03:48:06.770Z,139.63
2023-01-19T03:50:33.931Z,130.20
2023-01-19T03:53:06.981Z,133.97
2023-01-19T03:55:34.581Z,136.33
2023-01-19T03:58:01.750Z,123.93
2023-01-19T04:00:29.109Z,122.33
2023-01-19T04:02:56.394Z,110.07
2023-01-19T04:05:23.610Z,119.90
2023-01-19T04:07:51.284Z,128.80
2023-01-19T04:10:18.869Z,152.50
2023-01-19T04:12:46.092Z,171.13
2023-01-19T04:15:13.433Z,169.47
2023-01-19T04:17:40.676Z,156.87
2023-01-19T04:20:08.155Z,137.97
2023-01-19T04:22:35.646Z,136.03
2023-01-19T04:25:03.327Z,135.63
2023-01-19T04:27:30.473Z,135.73
2023-01-19T04:29:57.670Z,148.43
2023-01-19T04:32:24.878Z,166.20
2023-01-19T04:34:52.062Z,176.30
2023-01-19T04:37:19.238Z,167.07
2023-01-19T04:39:46.375Z,161.20
2023-01-19T04:42:32.431Z,166.53
2023-01-19T04:44:59.579Z,163.27
2023-01-19T04:47:26.733Z,164.53
2023-01-19T04:49:53.927Z,151.67
2023-01-19T04:52:21.061Z,159.30
2023-01-19T04:54:48.515Z,151.63
2023-01-19T04:57:15.722Z,142.70
2023-01-19T04:59:42.878Z,71.70
2023-01-19T05:02:10.077Z,77.47
2023-01-19T05:04:37.295Z,100.47
2023-01-19T05:07:04.440Z,80.70
2023-01-19T05:09:31.622Z,115.07
2023-01-19T05:11:58.810Z,104.03
2023-01-19T05:14:26.096Z,114.07
2023-01-19T05:16:53.229Z,96.53
2023-01-19T05:19:21.194Z,95.20
2023-01-19T05:21:48.386Z,103.70
2023-01-19T05:24:15.635Z,94.33
2023-01-19T05:26:43.517Z,93.90
2023-01-19T05:29:10.668Z,90.20
2023-01-19T05:31:37.927Z,81.83
2023-01-19T05:34:05.287Z,78.33
2023-01-19T05:36:32.703Z,80.63
2023-01-19T05:38:59.844Z,78.97
2023-01-19T05:41:27.022Z,81.53
2023-01-19T05:43:54.198Z,89.00
2023-01-19T05:46:21.395Z,99.60
2023-01-19T05:48:48.796Z,103.80
2023-01-19T05:51:15.908Z,112.97
2023-01-19T05:53:43.104Z,107.43
2023-01-19T05:56:10.380Z,113.60
2023-01-19T05:58:39.389Z,120.17
2023-01-19T06:01:07.029Z,115.97
2023-01-19T06:03:34.328Z,122.43
2023-01-19T06:06:01.670Z,122.83
2023-01-19T06:08:28.876Z,120.77
2023-01-19T06:10:56.474Z,150.00
2023-01-19T06:13:23.630Z,133.57
2023-01-19T06:15:56.549Z,132.93
2023-01-19T06:18:23.749Z,141.10
2023-01-19T06:20:52.156Z,127.40
2023-01-19T06:23:21.000Z,137.03
2023-01-19T06:25:48.143Z,137.43
2023-01-19T06:28:15.287Z,127.40
2023-01-19T06:30:42.482Z,122.93
2023-01-19T06:33:09.629Z,136.57
2023-01-19T06:35:36.944Z,132.60
2023-01-19T06:38:04.149Z,132.37
2023-01-19T06:40:31.314Z,128.27
2023-01-19T06:42:58.817Z,115.73
2023-01-19T06:45:26.172Z,126.63
2023-01-19T06:47:53.370Z,129.63
2023-01-19T06:50:20.661Z,131.30
2023-01-19T06:52:50.618Z,130.87
2023-01-19T06:55:17.830Z,125.93
2023-01-19T06:57:45.110Z,130.50
2023-01-19T07:00:13.045Z,138.80
2023-01-19T07:02:43.481Z,128.93
2023-01-19T07:05:11.836Z,121.70
2023-01-19T07:07:39.763Z,121.97
2023-01-19T07:10:11.830Z,117.63
2023-01-19T07:12:39.544Z,131.90
2023-01-19T07:15:07.408Z,142.60
2023-01-19T07:17:34.554Z,116.07
2023-01-19T07:20:01.888Z,111.20
2023-01-19T07:22:29.045Z,120.07
2023-01-19T07:24:56.233Z,122.87
2023-01-19T07:27:23.362Z,125.83
2023-01-19T07:29:50.654Z,122.50
2023-01-19T07:32:17.778Z,118.83
2023-01-19T07:34:45.454Z,100.63
2023-01-19T07:37:13.192Z,124.23
2023-01-19T07:39:40.339Z,127.17
2023-01-19T07:42:07.651Z,139.57
2023-01-19T07:44:34.836Z,144.17
2023-01-19T07:47:01.980Z,151.20
2023-01-19T07:49:29.180Z,156.77
2023-01-19T07:51:56.460Z,114.83
2023-01-19T07:54:23.686Z,79.03
2023-01-19T07:56:50.848Z,85.50
2023-01-19T07:59:18.018Z,90.43
2023-01-19T08:01:46.435Z,131.03
2023-01-19T08:04:13.760Z,144.50
2023-01-19T08:06:41.116Z,129.97
2023-01-19T08:09:08.489Z,124.17
2023-01-19T08:11:35.650Z,146.60
2023-01-19T08:14:02.971Z,139.17
2023-01-19T08:16:30.130Z,115.57
2023-01-19T08:18:57.347Z,111.13
2023-01-19T08:21:24.547Z,114.93
2023-01-19T08:23:58.243Z,116.43
2023-01-19T08:26:29.826Z,114.17
2023-01-19T08:28:57.767Z,105.80
2023-01-19T08:31:25.332Z,103.40
2023-01-19T08:33:52.774Z,90.57
2023-01-19T08:36:20.266Z,82.60
2023-01-19T08:38:47.525Z,72.80
2023-01-19T08:41:16.496Z,76.43
2023-01-19T08:43:45.458Z,56.83
2023-01-19T08:46:16.925Z,57.30
2023-01-19T08:48:45.230Z,82.60
2023-01-19T08:51:15.883Z,92.33
2023-01-19T08:53:43.302Z,79.30
2023-01-19T08:56:14.324Z,94.93
2023-01-19T08:58:44.711Z,103.57
2023-01-19T09:01:14.859Z,61.13
2023-01-19T09:03:42.133Z,31.83
2023-01-19T09:06:09.418Z,24.97
2023-01-19T09:08:36.573Z,22.87
2023-01-19T09:11:05.217Z,13.97
2023-01-19T09:13:32.380Z,16.97
2023-01-19T09:15:59.931Z,17.90
2023-01-19T09:18:27.133Z,68.97
2023-01-19T09:20:54.947Z,86.93
2023-01-19T09:23:22.741Z,102.33
2023-01-19T09:25:50.007Z,97.73
2023-01-19T09:28:17.738Z,118.03
2023-01-19T09:30:45.065Z,129.47
2023-01-19T09:33:13.277Z,138.70
2023-01-19T09:35:40.670Z,111.50
2023-01-19T09:38:08.872Z,110.50
2023-01-19T09:40:36.834Z,109.13
2023-01-19T09:43:14.176Z,34.57
2023-01-19T09:45:59.884Z,22.60
2023-01-19T09:48:29.900Z,17.20
2023-01-19T09:50:57.355Z,17.80
2023-01-19T09:53:43.360Z,16.17
2023-01-19T09:56:14.425Z,16.00
2023-01-19T09:58:41.839Z,14.97
2023-01-19T10:01:21.250Z,19.17
2023-01-19T10:03:48.436Z,18.80
2023-01-19T10:06:17.349Z,23.07
2023-01-19T10:08:56.586Z,25.57
2023-01-19T10:11:26.318Z,41.23
2023-01-19T10:13:54.257Z,47.97
2023-01-19T10:16:21.483Z,40.00
2023-01-19T10:18:51.564Z,44.33
2023-01-19T10:21:18.738Z,42.80
2023-01-19T10:23:59.414Z,50.70
2023-01-19T10:26:39.617Z,62.43
2023-01-19T10:29:27.191Z,63.40
2023-01-19T10:31:56.691Z,72.40
2023-01-19T10:34:24.035Z,65.33
2023-01-19T10:36:59.629Z,57.30
2023-01-19T10:39:26.826Z,57.73
2023-01-19T10:41:54.130Z,48.80
2023-01-19T10:44:25.286Z,40.30
2023-01-19T10:46:52.528Z,42.97
2023-01-19T10:49:27.435Z,44.07
2023-01-19T10:51:54.769Z,34.40
2023-01-19T10:54:22.032Z,38.83
2023-01-19T10:56:54.420Z,31.57
2023-01-19T10:59:38.179Z,28.73
2023-01-19T11:02:05.519Z,28.30
2023-01-19T11:04:32.819Z,54.10
2023-01-19T11:07:15.470Z,212.67
2023-01-19T11:09:42.606Z,399.53
2023-01-19T11:12:16.598Z,87.40
2023-01-19T11:14:43.804Z,75.00
2023-01-19T11:17:17.600Z,50.20
2023-01-19T11:19:44.833Z,70.23
2023-01-19T11:22:24.874Z,44.13
2023-01-19T11:24:52.202Z,31.27
2023-01-19T11:27:20.525Z,23.67
2023-01-19T11:29:48.514Z,25.33
2023-01-19T11:32:22.043Z,26.47
2023-01-19T11:34:49.278Z,24.80
2023-01-19T11:37:19.213Z,123.17
2023-01-19T11:39:46.991Z,48.40
2023-01-19T11:42:14.187Z,34.90
2023-01-19T11:44:45.841Z,36.73
2023-01-19T11:47:13.552Z,46.80
2023-01-19T11:49:59.145Z,37.63
2023-01-19T11:52:30.980Z,33.33
2023-01-19T11:54:59.454Z,43.43
2023-01-19T11:57:26.618Z,35.20
2023-01-19T11:59:54.523Z,50.57
2023-01-19T12:02:29.603Z,45.07
2023-01-19T12:04:57.912Z,47.83
2023-01-19T12:07:26.986Z,53.23
2023-01-19T12:09:55.241Z,60.40
2023-01-19T12:12:31.845Z,48.70
2023-01-19T12:15:18.466Z,71.77
2023-01-19T12:17:46.621Z,43.67
2023-01-19T12:20:15.121Z,30.80
2023-01-19T12:22:44.100Z,31.50
2023-01-19T12:25:14.881Z,35.33
2023-01-19T12:27:42.884Z,23.53
2023-01-19T12:30:20.606Z,26.87
2023-01-19T12:32:47.955Z,26.10
2023-01-19T12:35:33.621Z,27.27
2023-01-19T12:38:00.775Z,28.60
2023-01-19T12:40:28.900Z,33.87
2023-01-19T12:42:57.592Z,52.70
2023-01-19T12:45:25.770Z,39.23
2023-01-19T12:47:53.292Z,33.27
2023-01-19T12:50:21.203Z,43.17
2023-01-19T12:52:51.620Z,40.73
2023-01-19T12:55:23.527Z,33.87
2023-01-19T12:57:52.410Z,41.27
2023-01-19T13:00:22.578Z,34.47
2023-01-19T13:02:50.306Z,38.30
2023-01-19T13:05:18.561Z,36.20
2023-01-19T13:08:04.917Z,41.43
2023-01-19T13:10:50.479Z,34.63
2023-01-19T13:13:18.788Z,30.33
2023-01-19T13:15:45.995Z,30.67
2023-01-19T13:18:19.777Z,60.23
2023-01-19T13:21:13.883Z,59.10
2023-01-19T13:23:50.226Z,53.47
2023-01-19T13:26:17.941Z,73.47
2023-01-19T13:28:45.966Z,90.33
2023-01-19T13:31:13.569Z,82.73
2023-01-19T13:33:56.602Z,94.13
2023-01-19T13:36:34.131Z,114.27
2023-01-19T13:39:02.458Z,73.23
2023-01-19T13:41:30.421Z,151.43
2023-01-19T13:44:02.522Z,114.90
2023-01-19T13:46:29.776Z,91.43
2023-01-19T13:49:12.460Z,88.97
2023-01-19T13:51:39.614Z,88.97
2023-01-19T13:54:06.816Z,61.43
2023-01-19T13:56:34.005Z,80.30
2023-01-19T13:59:02.344Z,83.20
2023-01-19T14:01:31.188Z,64.97
2023-01-19T14:03:58.722Z,62.23
2023-01-19T14:06:33.128Z,67.70
2023-01-19T14:09:11.322Z,109.13
2023-01-19T14:11:38.621Z,186.50
2023-01-19T14:14:05.868Z,171.67
2023-01-19T14:16:33.135Z,131.17
2023-01-19T14:19:02.239Z,155.97
2023-01-19T14:21:37.874Z,143.67
2023-01-19T14:24:09.232Z,129.87
2023-01-19T14:26:36.387Z,231.90
2023-01-19T14:29:22.314Z,177.00
2023-01-19T14:31:50.435Z,256.87
2023-01-19T14:34:29.694Z,270.87
2023-01-19T14:36:56.847Z,219.97
2023-01-19T14:39:24.400Z,229.10
2023-01-19T14:41:54.604Z,228.33
2023-01-19T14:44:21.997Z,171.50
2023-01-19T14:46:49.268Z,103.90
2023-01-19T14:49:38.866Z,86.17
2023-01-19T14:52:07.404Z,60.60
2023-01-19T14:54:40.905Z,46.43
2023-01-19T14:57:11.730Z,59.37
2023-01-19T14:59:38.901Z,100.77
2023-01-19T15:02:06.375Z,126.20
2023-01-19T15:04:33.704Z,110.20
2023-01-19T15:07:00.867Z,87.60
2023-01-19T15:09:28.041Z,52.37
2023-01-19T15:11:55.177Z,64.47
2023-01-19T15:14:22.420Z,59.23
2023-01-19T15:16:49.722Z,55.13
2023-01-19T15:19:17.568Z,72.10
2023-01-19T15:21:46.819Z,77.60
2023-01-19T15:24:16.289Z,106.50
2023-01-19T15:26:44.788Z,88.67
2023-01-19T15:29:32.414Z,85.10
2023-01-19T15:31:59.594Z,78.43
2023-01-19T15:34:26.766Z,80.53
2023-01-19T15:36:54.002Z,90.03
2023-01-19T15:39:21.193Z,78.13
2023-01-19T15:41:48.356Z,89.17
2023-01-19T15:44:15.552Z,109.43
2023-01-19T15:46:42.691Z,102.27
2023-01-19T15:49:09.871Z,96.30
2023-01-19T15:51:37.117Z,89.13
2023-01-19T15:54:04.359Z,90.90
2023-01-19T15:56:31.675Z,38.73
2023-01-19T15:58:59.172Z,34.87
2023-01-19T16:01:31.379Z,33.70
2023-01-19T16:04:00.541Z,37.03
2023-01-19T16:06:27.896Z,81.97
2023-01-19T16:08:59.595Z,130.50
2023-01-19T16:11:26.780Z,281.27
2023-01-19T16:13:53.937Z,169.03
2023-01-19T16:16:21.998Z,109.67
2023-01-19T16:18:49.193Z,121.73
2023-01-19T16:21:16.360Z,147.67
2023-01-19T16:23:43.539Z,111.80
2023-01-19T16:26:29.444Z,76.37
2023-01-19T16:28:57.533Z,124.97
2023-01-19T16:31:24.775Z,101.63
2023-01-19T16:33:52.043Z,83.73
2023-01-19T16:36:23.556Z,31.70
2023-01-19T16:38:50.837Z,32.47
2023-01-19T16:41:18.187Z,130.60
2023-01-19T16:43:45.338Z,45.63
2023-01-19T16:46:33.836Z,66.23
2023-01-19T16:49:01.728Z,45.70
2023-01-19T16:51:29.127Z,37.63
2023-01-19T16:53:56.333Z,32.37
2023-01-19T16:56:23.529Z,30.63
2023-01-19T16:58:57.256Z,22.90
2023-01-19T17:01:24.814Z,39.27
2023-01-19T17:03:52.150Z,46.13
2023-01-19T17:06:20.326Z,52.73
2023-01-19T17:08:47.696Z,56.50
2023-01-19T17:11:20.659Z,59.67
2023-01-19T17:13:51.327Z,58.13
2023-01-19T17:16:18.575Z,74.00
2023-01-19T17:18:45.822Z,78.77
2023-01-19T17:21:14.164Z,33.17
2023-01-19T17:23:44.759Z,120.43
2023-01-19T17:26:12.014Z,79.40
2023-01-19T17:28:39.151Z,91.77
2023-01-19T17:31:11.055Z,78.13
2023-01-19T17:33:38.363Z,60.93
2023-01-19T17:36:05.977Z,66.97
2023-01-19T17:38:33.134Z,41.50
2023-01-19T17:41:00.383Z,38.90
2023-01-19T17:43:27.535Z,35.67
2023-01-19T17:46:13.543Z,31.40
2023-01-19T17:48:40.777Z,58.20
2023-01-19T17:51:12.016Z,60.57
2023-01-19T17:53:39.761Z,120.47
2023-01-19T17:56:10.747Z,80.10
2023-01-19T17:58:38.020Z,74.07
2023-01-19T18:01:15.317Z,100.83
2023-01-19T18:03:42.769Z,55.10
2023-01-19T18:06:10.162Z,47.53
2023-01-19T18:08:40.983Z,31.10
2023-01-19T18:11:08.237Z,36.67
2023-01-19T18:13:35.377Z,44.60
2023-01-19T18:16:03.140Z,48.17
2023-01-19T18:18:30.401Z,63.50
2023-01-19T18:21:00.959Z,59.87
2023-01-19T18:23:28.354Z,49.43
2023-01-19T18:26:01.655Z,42.00
2023-01-19T18:28:28.929Z,45.93
2023-01-19T18:30:56.221Z,46.00
2023-01-19T18:33:23.502Z,38.23
2023-01-19T18:35:50.752Z,40.80
2023-01-19T18:38:17.974Z,59.87
2023-01-19T18:40:45.191Z,68.93
2023-01-19T18:43:12.618Z,50.77
2023-01-19T18:45:41.820Z,55.20
2023-01-19T18:48:09.545Z,54.57
2023-01-19T18:50:38.037Z,52.50
2023-01-19T18:53:05.192Z,38.53
2023-01-19T18:55:32.405Z,31.00
2023-01-19T18:57:59.551Z,35.13
2023-01-19T19:00:26.744Z,34.57
2023-01-19T19:02:55.608Z,37.80
2023-01-19T19:05:23.065Z,35.03
2023-01-19T19:07:50.209Z,37.67
2023-01-19T19:10:17.523Z,43.77
2023-01-19T19:12:45.960Z,79.73
2023-01-19T19:15:13.941Z,68.70
2023-01-19T19:17:41.122Z,72.97
2023-01-19T19:20:08.553Z,102.07
2023-01-19T19:22:35.708Z,97.60
2023-01-19T19:25:02.897Z,136.10
2023-01-19T19:27:30.113Z,155.17
2023-01-19T19:29:57.288Z,235.90
2023-01-19T19:32:24.503Z,202.70
2023-01-19T19:34:56.618Z,65.57
2023-01-19T19:37:23.872Z,70.13
2023-01-19T19:39:51.818Z,78.93
2023-01-19T19:42:19.071Z,79.37
2023-01-19T19:44:46.261Z,89.60
2023-01-19T19:47:13.432Z,75.87
2023-01-19T19:49:40.950Z,55.80
2023-01-19T19:52:08.108Z,46.57
2023-01-19T19:54:35.318Z,38.03
2023-01-19T19:57:02.505Z,31.50
2023-01-19T19:59:29.664Z,48.37
2023-01-19T20:01:56.892Z,48.87
2023-01-19T20:04:25.340Z,49.20
2023-01-19T20:06:52.569Z,37.43
2023-01-19T20:09:19.754Z,43.17
2023-01-19T20:11:49.025Z,44.20
2023-01-19T20:14:16.409Z,56.60
2023-01-19T20:16:43.745Z,63.77
2023-01-19T20:19:10.989Z,77.93
2023-01-19T20:21:38.773Z,263.17
2023-01-19T20:24:07.042Z,60.27
2023-01-19T20:26:35.805Z,68.80
2023-01-19T20:29:06.171Z,149.13
2023-01-19T20:31:34.259Z,405.60
2023-01-19T20:34:01.926Z,290.83
2023-01-19T20:36:29.117Z,399.17
2023-01-19T20:38:56.529Z,277.43
2023-01-19T20:41:23.809Z,218.27
2023-01-19T20:43:50.988Z,182.17
2023-01-19T20:46:18.333Z,120.07
2023-01-19T20:48:50.802Z,115.23
2023-01-19T20:51:18.840Z,70.37
2023-01-19T20:53:46.055Z,82.90
2023-01-19T20:56:13.537Z,81.67
2023-01-19T20:58:40.806Z,94.83
2023-01-19T21:01:14.795Z,95.50
2023-01-19T21:03:42.212Z,60.33
2023-01-19T21:06:09.792Z,49.87
2023-01-19T21:08:37.147Z,56.20
2023-01-19T21:11:04.702Z,62.47
2023-01-19T21:13:32.134Z,47.67
2023-01-19T21:15:59.507Z,42.50
2023-01-19T21:18:27.906Z,41.83
2023-01-19T21:20:58.029Z,39.47
2023-01-19T21:23:25.743Z,71.10
2023-01-19T21:25:53.542Z,57.27
2023-01-19T21:28:21.688Z,53.87
2023-01-19T21:30:48.893Z,52.97
2023-01-19T21:33:16.926Z,69.57
2023-01-19T21:35:53.638Z,73.77
2023-01-19T21:38:20.827Z,62.23
2023-01-19T21:40:48.186Z,53.90
2023-01-19T21:43:15.479Z,52.40
2023-01-19T21:45:43.186Z,52.20
2023-01-19T21:48:10.477Z,52.90
2023-01-19T21:50:37.680Z,52.17
2023-01-19T21:53:07.692Z,52.37
2023-01-19T21:55:34.872Z,58.30
2023-01-19T21:58:02.044Z,48.90
2023-01-19T22:00:32.663Z,47.40
2023-01-19T22:03:04.119Z,55.30
2023-01-19T22:05:36.556Z,62.43
2023-01-19T22:08:04.278Z,59.67
2023-01-19T22:10:31.459Z,49.90
2023-01-19T22:12:58.718Z,83.27
2023-01-19T22:15:25.901Z,58.43
2023-01-19T22:17:53.061Z,57.80
2023-01-19T22:20:20.392Z,43.10
2023-01-19T22:22:47.594Z,82.50
2023-01-19T22:25:15.211Z,62.03
2023-01-19T22:27:42.633Z,82.30
2023-01-19T22:30:10.077Z,89.60
2023-01-19T22:32:37.322Z,169.50
2023-01-19T22:35:04.620Z,136.00
2023-01-19T22:37:35.411Z,47.63
2023-01-19T22:40:03.039Z,44.00
2023-01-19T22:42:30.232Z,42.03
2023-01-19T22:44:57.365Z,45.93
2023-01-19T22:47:24.531Z,61.83
2023-01-19T22:49:51.720Z,83.50
2023-01-19T22:52:18.883Z,116.53
2023-01-19T22:54:46.031Z,128.90
2023-01-19T22:57:13.208Z,106.60
2023-01-19T22:59:40.376Z,73.00
2023-01-19T23:02:09.204Z,62.77
2023-01-19T23:04:36.514Z,43.67
2023-01-19T23:07:03.691Z,39.13
2023-01-19T23:09:30.902Z,44.40
2023-01-19T23:11:58.730Z,44.00
2023-01-19T23:14:25.933Z,41.47
2023-01-19T23:16:53.107Z,50.50
2023-01-19T23:19:20.325Z,39.20
2023-01-19T23:21:47.481Z,38.37
2023-01-19T23:24:14.684Z,41.50
2023-01-19T23:26:41.894Z,37.70
2023-01-19T23:29:11.921Z,36.20
2023-01-19T23:31:39.429Z,33.13
2023-01-19T23:34:07.371Z,38.03
2023-01-19T23:36:35.197Z,46.23
2023-01-19T23:39:10.127Z,54.10
2023-01-19T23:41:37.288Z,37.57
2023-01-19T23:44:04.656Z,28.33
2023-01-19T23:46:32.028Z,30.63
2023-01-19T23:48:59.229Z,34.10
2023-01-19T23:51:29.910Z,32.07
2023-01-19T23:53:57.504Z,31.83
2023-01-19T23:56:25.723Z,70.03
2023-01-19T23:58:53.897Z,78.30
